createdAt,value
2022-10-01T00:00:25.284Z,0.00
2022-10-01T00:01:25.446Z,0.00
2022-10-01T00:02:25.553Z,0.00
2022-10-01T00:03:25.583Z,0.00
2022-10-01T00:04:25.686Z,0.00
2022-10-01T00:05:25.788Z,0.00
2022-10-01T00:06:25.887Z,0.00
2022-10-01T00:07:25.980Z,0.00
2022-10-01T00:08:26.084Z,0.00
2022-10-01T00:09:26.205Z,0.00
2022-10-01T00:10:26.281Z,0.00
2022-10-01T00:11:26.379Z,0.00
2022-10-01T00:12:26.474Z,0.00
2022-10-01T00:13:26.572Z,0.00
2022-10-01T00:14:26.667Z,0.00
2022-10-01T00:15:26.763Z,0.00
2022-10-01T00:16:26.929Z,0.00
2022-10-01T00:17:26.957Z,0.00
2022-10-01T00:18:27.059Z,0.00
2022-10-01T00:19:27.162Z,0.00
2022-10-01T00:20:27.250Z,0.00
2022-10-01T00:21:27.354Z,0.00
2022-10-01T00:22:27.447Z,0.00
2022-10-01T00:23:27.538Z,0.00
2022-10-01T00:24:27.653Z,0.00
2022-10-01T00:25:27.721Z,0.00
2022-10-01T00:26:27.808Z,0.00
2022-10-01T00:27:27.899Z,0.00
2022-10-01T00:28:28.096Z,0.00
2022-10-01T00:29:28.078Z,0.00
2022-10-01T00:30:28.172Z,0.00
2022-10-01T00:31:28.344Z,0.00
2022-10-01T00:32:28.354Z,0.00
2022-10-01T00:33:28.444Z,0.00
2022-10-01T00:34:28.535Z,0.00
2022-10-01T00:35:28.633Z,0.00
2022-10-01T00:36:28.730Z,0.00
2022-10-01T00:37:28.822Z,0.00
2022-10-01T00:38:28.915Z,0.00
2022-10-01T00:39:29.013Z,0.00
2022-10-01T00:40:29.161Z,0.00
2022-10-01T00:41:29.223Z,0.00
2022-10-01T00:42:29.272Z,0.00
2022-10-01T00:43:29.363Z,0.00
2022-10-01T00:44:29.451Z,0.00
2022-10-01T00:45:29.654Z,0.00
2022-10-01T00:46:29.634Z,0.00
2022-10-01T00:47:29.728Z,0.00
2022-10-01T00:48:29.815Z,0.00
2022-10-01T00:49:29.906Z,0.00
2022-10-01T00:50:29.995Z,0.00
2022-10-01T00:51:30.090Z,0.00
2022-10-01T00:52:30.179Z,0.00
2022-10-01T00:53:30.274Z,0.00
2022-10-01T00:54:30.368Z,0.00
2022-10-01T00:55:30.458Z,0.00
2022-10-01T00:56:30.574Z,0.00
2022-10-01T00:57:30.642Z,0.00
2022-10-01T00:58:30.740Z,0.00
2022-10-01T00:59:30.838Z,0.00
2022-10-01T01:00:30.934Z,0.00
2022-10-01T01:01:31.359Z,0.00
2022-10-01T01:02:31.177Z,0.00
2022-10-01T01:03:31.217Z,0.00
2022-10-01T01:04:31.313Z,0.00
2022-10-01T01:05:31.409Z,0.00
2022-10-01T01:06:31.506Z,0.00
2022-10-01T01:07:31.600Z,0.00
2022-10-01T01:08:31.701Z,0.00
2022-10-01T01:09:31.796Z,0.00
2022-10-01T01:10:31.894Z,0.00
2022-10-01T01:11:32.328Z,0.00
2022-10-01T01:12:32.111Z,0.00
2022-10-01T01:13:32.181Z,0.00
2022-10-01T01:14:32.277Z,0.00
2022-10-01T01:15:32.443Z,0.00
2022-10-01T01:16:32.478Z,0.00
2022-10-01T01:17:32.583Z,0.00
2022-10-01T01:18:32.683Z,0.00
2022-10-01T01:19:32.786Z,0.00
2022-10-01T01:20:32.883Z,0.00
2022-10-01T01:21:33.344Z,0.00
2022-10-01T01:22:33.083Z,0.00
2022-10-01T01:23:33.187Z,0.00
2022-10-01T01:24:33.296Z,0.00
2022-10-01T01:25:33.398Z,0.00
2022-10-01T01:26:33.501Z,0.00
2022-10-01T01:27:33.603Z,0.00
2022-10-01T01:28:33.734Z,0.00
2022-10-01T01:29:33.820Z,0.00
2022-10-01T01:30:33.924Z,0.00
2022-10-01T01:31:34.342Z,0.00
2022-10-01T01:32:34.147Z,0.00
2022-10-01T01:33:34.262Z,0.00
2022-10-01T01:34:34.366Z,0.00
2022-10-01T01:35:34.477Z,0.00
2022-10-01T01:36:34.586Z,0.00
2022-10-01T01:37:34.730Z,0.00
2022-10-01T01:38:34.800Z,0.00
2022-10-01T01:39:34.904Z,0.00
2022-10-01T01:40:35.018Z,0.00
2022-10-01T01:41:35.476Z,0.00
2022-10-01T01:42:35.239Z,0.00
2022-10-01T01:43:35.353Z,0.00
2022-10-01T01:44:35.486Z,0.00
2022-10-01T01:45:35.611Z,0.00
2022-10-01T01:46:35.688Z,0.00
2022-10-01T01:47:35.806Z,0.00
2022-10-01T01:48:35.922Z,0.00
2022-10-01T01:49:36.029Z,0.00
2022-10-01T01:50:36.142Z,0.00
2022-10-01T01:51:36.567Z,0.00
2022-10-01T01:52:36.367Z,0.00
2022-10-01T01:53:36.486Z,0.00
2022-10-01T01:54:36.601Z,0.00
2022-10-01T01:55:36.718Z,0.00
2022-10-01T01:56:36.833Z,0.00
2022-10-01T01:57:36.952Z,0.00
2022-10-01T01:58:37.066Z,0.00
2022-10-01T01:59:37.185Z,0.00
2022-10-01T02:00:37.322Z,0.00
2022-10-01T02:01:37.838Z,0.00
2022-10-01T02:02:37.635Z,0.00
2022-10-01T02:03:37.634Z,0.00
2022-10-01T02:04:37.752Z,0.00
2022-10-01T02:05:37.869Z,0.00
2022-10-01T02:06:37.982Z,0.00
2022-10-01T02:07:38.092Z,0.00
2022-10-01T02:08:38.214Z,0.00
2022-10-01T02:09:38.332Z,0.00
2022-10-01T02:10:38.444Z,0.00
2022-10-01T02:11:38.560Z,0.00
2022-10-01T02:12:38.671Z,0.00
2022-10-01T02:13:38.791Z,0.00
2022-10-01T02:14:38.905Z,0.00
2022-10-01T02:15:39.079Z,0.00
2022-10-01T02:16:39.155Z,0.00
2022-10-01T02:17:39.247Z,0.00
2022-10-01T02:18:39.357Z,0.00
2022-10-01T02:19:39.468Z,0.00
2022-10-01T02:20:39.581Z,0.00
2022-10-01T02:21:39.694Z,0.00
2022-10-01T02:22:39.815Z,0.00
2022-10-01T02:23:39.931Z,0.00
2022-10-01T02:24:40.046Z,0.00
2022-10-01T02:25:40.164Z,0.00
2022-10-01T02:26:40.282Z,0.00
2022-10-01T02:27:40.406Z,0.00
2022-10-01T02:28:40.522Z,0.00
2022-10-01T02:29:40.644Z,0.00
2022-10-01T02:30:40.761Z,0.00
2022-10-01T02:31:40.958Z,0.00
2022-10-01T02:32:41.025Z,0.00
2022-10-01T02:33:41.134Z,0.00
2022-10-01T02:34:41.249Z,0.00
2022-10-01T02:35:41.372Z,0.00
2022-10-01T02:36:41.518Z,0.00
2022-10-01T02:37:41.615Z,0.00
2022-10-01T02:38:41.737Z,0.00
2022-10-01T02:39:41.858Z,0.00
2022-10-01T02:40:41.981Z,0.00
2022-10-01T02:41:42.105Z,0.00
2022-10-01T02:42:42.228Z,0.00
2022-10-01T02:43:43.195Z,0.00
2022-10-01T02:44:42.480Z,0.00
2022-10-01T02:45:42.667Z,0.00
2022-10-01T02:46:42.720Z,0.00
2022-10-01T02:47:42.939Z,0.00
2022-10-01T02:48:42.963Z,0.00
2022-10-01T02:49:43.084Z,0.00
2022-10-01T02:50:43.207Z,0.00
2022-10-01T02:51:43.334Z,0.00
2022-10-01T02:52:43.450Z,0.00
2022-10-01T02:53:43.572Z,0.00
2022-10-01T02:54:43.691Z,0.00
2022-10-01T02:55:43.815Z,0.00
2022-10-01T02:56:48.874Z,0.00
2022-10-01T02:57:44.060Z,0.00
2022-10-01T02:58:44.185Z,0.00
2022-10-01T02:59:44.313Z,0.00
2022-10-01T03:00:44.437Z,0.00
2022-10-01T03:01:44.618Z,0.00
2022-10-01T03:02:44.763Z,0.00
2022-10-01T03:03:44.847Z,0.00
2022-10-01T03:04:44.951Z,0.00
2022-10-01T03:05:45.082Z,0.00
2022-10-01T03:06:45.216Z,0.00
2022-10-01T03:07:45.338Z,0.00
2022-10-01T03:08:45.461Z,0.00
2022-10-01T03:09:45.580Z,0.00
2022-10-01T03:10:46.849Z,0.00
2022-10-01T03:11:45.830Z,0.00
2022-10-01T03:12:45.956Z,0.00
2022-10-01T03:13:46.078Z,0.00
2022-10-01T03:14:46.205Z,0.00
2022-10-01T03:15:46.411Z,0.00
2022-10-01T03:16:46.464Z,0.00
2022-10-01T03:17:46.591Z,0.00
2022-10-01T03:18:46.745Z,0.00
2022-10-01T03:19:46.850Z,0.00
2022-10-01T03:20:46.971Z,0.00
2022-10-01T03:21:47.098Z,0.00
2022-10-01T03:22:47.227Z,0.00
2022-10-01T03:23:47.354Z,0.00
2022-10-01T03:24:47.486Z,0.00
2022-10-01T03:25:47.613Z,0.00
2022-10-01T03:26:47.742Z,0.00
2022-10-01T03:27:47.933Z,0.00
2022-10-01T03:28:47.998Z,0.00
2022-10-01T03:29:48.127Z,0.00
2022-10-01T03:30:48.255Z,0.00
2022-10-01T03:31:48.450Z,0.00
2022-10-01T03:32:48.514Z,0.00
2022-10-01T03:33:48.661Z,0.00
2022-10-01T03:34:48.765Z,0.00
2022-10-01T03:35:48.888Z,0.00
2022-10-01T03:36:49.015Z,0.00
2022-10-01T03:37:49.144Z,0.00
2022-10-01T03:38:49.271Z,0.00
2022-10-01T03:39:49.395Z,0.00
2022-10-01T03:40:49.518Z,0.00
2022-10-01T03:41:49.645Z,0.00
2022-10-01T03:42:49.768Z,0.00
2022-10-01T03:43:49.895Z,0.00
2022-10-01T03:44:50.020Z,0.00
2022-10-01T03:45:50.206Z,0.00
2022-10-01T03:46:52.242Z,0.00
2022-10-01T03:47:50.406Z,0.00
2022-10-01T03:48:50.533Z,0.00
2022-10-01T03:49:50.687Z,0.00
2022-10-01T03:50:50.795Z,0.00
2022-10-01T03:51:50.919Z,0.00
2022-10-01T03:52:51.045Z,0.00
2022-10-01T03:53:51.165Z,0.00
2022-10-01T03:54:51.289Z,0.00
2022-10-01T03:55:51.413Z,0.00
2022-10-01T03:56:51.546Z,0.00
2022-10-01T03:57:51.678Z,0.00
2022-10-01T03:58:52.010Z,0.00
2022-10-01T03:59:51.928Z,0.00
2022-10-01T04:00:52.254Z,0.00
2022-10-01T04:01:52.517Z,0.00
2022-10-01T04:02:52.362Z,0.00
2022-10-01T04:03:52.412Z,0.00
2022-10-01T04:04:52.513Z,0.00
2022-10-01T04:05:52.661Z,0.00
2022-10-01T04:06:52.767Z,0.00
2022-10-01T04:07:52.892Z,0.00
2022-10-01T04:08:53.012Z,0.00
2022-10-01T04:09:53.139Z,0.00
2022-10-01T04:10:53.262Z,0.00
2022-10-01T04:11:53.383Z,0.00
2022-10-01T04:12:53.510Z,0.00
2022-10-01T04:13:53.634Z,0.00
2022-10-01T04:14:53.755Z,0.00
2022-10-01T04:15:53.920Z,0.00
2022-10-01T04:16:53.996Z,0.00
2022-10-01T04:17:54.123Z,0.00
2022-10-01T04:18:54.242Z,0.00
2022-10-01T04:19:54.369Z,0.00
2022-10-01T04:20:54.517Z,0.00
2022-10-01T04:21:54.614Z,0.00
2022-10-01T04:22:54.736Z,0.00
2022-10-01T04:23:54.858Z,0.00
2022-10-01T04:24:54.981Z,0.00
2022-10-01T04:25:55.104Z,0.00
2022-10-01T04:26:55.222Z,0.00
2022-10-01T04:27:55.446Z,0.00
2022-10-01T04:28:55.466Z,0.00
2022-10-01T04:29:55.589Z,0.00
2022-10-01T04:30:55.714Z,0.00
2022-10-01T04:31:55.837Z,0.00
2022-10-01T04:32:55.952Z,0.00
2022-10-01T04:33:56.081Z,0.00
2022-10-01T04:34:56.203Z,0.00
2022-10-01T04:35:56.350Z,0.00
2022-10-01T04:36:56.445Z,0.00
2022-10-01T04:37:56.557Z,0.00
2022-10-01T04:39:01.757Z,0.00
2022-10-01T04:39:56.802Z,0.00
2022-10-01T04:40:56.926Z,0.00
2022-10-01T04:41:57.050Z,0.00
2022-10-01T04:42:57.175Z,0.00
2022-10-01T04:43:57.302Z,0.00
2022-10-01T04:44:57.432Z,0.00
2022-10-01T04:45:57.558Z,0.00
2022-10-01T04:46:57.784Z,0.00
2022-10-01T04:47:57.794Z,0.00
2022-10-01T04:48:57.930Z,0.00
2022-10-01T04:49:58.037Z,0.00
2022-10-01T04:50:58.182Z,0.00
2022-10-01T04:51:58.277Z,0.00
2022-10-01T04:52:58.393Z,0.00
2022-10-01T04:53:58.518Z,0.00
2022-10-01T04:54:58.643Z,0.00
2022-10-01T04:55:58.774Z,0.00
2022-10-01T04:56:58.892Z,0.00
2022-10-01T04:57:59.013Z,0.00
2022-10-01T04:58:59.131Z,0.00
2022-10-01T04:59:59.256Z,0.00
2022-10-01T05:01:01.990Z,0.00
2022-10-01T05:01:59.595Z,0.00
2022-10-01T05:02:59.631Z,0.00
2022-10-01T05:03:59.758Z,0.00
2022-10-01T05:04:59.876Z,0.00
2022-10-01T05:06:00.000Z,0.00
2022-10-01T05:07:00.143Z,0.00
2022-10-01T05:08:00.232Z,0.00
2022-10-01T05:09:00.351Z,0.00
2022-10-01T05:10:00.463Z,0.00
2022-10-01T05:11:00.605Z,0.00
2022-10-01T05:12:00.698Z,0.00
2022-10-01T05:13:00.820Z,0.00
2022-10-01T05:14:00.938Z,0.00
2022-10-01T05:15:01.052Z,0.00
2022-10-01T05:16:01.247Z,0.00
2022-10-01T05:17:01.293Z,0.00
2022-10-01T05:18:01.412Z,0.00
2022-10-01T05:19:01.531Z,0.00
2022-10-01T05:20:01.646Z,0.00
2022-10-01T05:21:01.757Z,0.00
2022-10-01T05:22:01.871Z,0.00
2022-10-01T05:23:02.091Z,0.00
2022-10-01T05:24:02.101Z,0.00
2022-10-01T05:25:02.216Z,0.00
2022-10-01T05:26:02.331Z,0.00
2022-10-01T05:27:02.447Z,0.00
2022-10-01T05:28:02.602Z,0.00
2022-10-01T05:29:02.680Z,0.00
2022-10-01T05:30:02.799Z,0.00
2022-10-01T05:31:03.029Z,0.00
2022-10-01T05:32:03.086Z,0.00
2022-10-01T05:33:03.150Z,0.00
2022-10-01T05:34:03.266Z,0.00
2022-10-01T05:35:03.385Z,0.00
2022-10-01T05:36:03.502Z,0.00
2022-10-01T05:37:03.621Z,0.00
2022-10-01T05:38:03.735Z,0.00
2022-10-01T05:39:03.875Z,0.00
2022-10-01T05:40:03.969Z,0.00
2022-10-01T05:41:04.082Z,0.00
2022-10-01T05:42:06.471Z,0.00
2022-10-01T05:43:04.321Z,0.00
2022-10-01T05:44:04.425Z,0.00
2022-10-01T05:45:04.556Z,0.00
2022-10-01T05:46:04.734Z,0.00
2022-10-01T05:47:04.771Z,0.00
2022-10-01T05:48:04.886Z,0.00
2022-10-01T05:49:05.004Z,0.00
2022-10-01T05:50:05.115Z,5.62
2022-10-01T05:51:05.229Z,5.62
2022-10-01T05:52:05.347Z,5.62
2022-10-01T05:53:05.462Z,5.62
2022-10-01T05:54:05.577Z,5.62
2022-10-01T05:55:05.716Z,11.25
2022-10-01T05:56:05.813Z,11.25
2022-10-01T05:57:05.924Z,5.62
2022-10-01T05:58:06.032Z,11.25
2022-10-01T05:59:06.145Z,11.25
2022-10-01T06:00:06.263Z,11.25
2022-10-01T06:01:06.377Z,11.25
2022-10-01T06:02:06.571Z,11.25
2022-10-01T06:03:06.755Z,11.25
2022-10-01T06:04:06.714Z,11.25
2022-10-01T06:05:06.831Z,11.25
2022-10-01T06:06:06.952Z,11.25
2022-10-01T06:07:07.073Z,16.87
2022-10-01T06:08:07.194Z,16.87
2022-10-01T06:09:07.310Z,11.25
2022-10-01T06:10:07.451Z,11.25
2022-10-01T06:11:07.544Z,16.87
2022-10-01T06:12:07.659Z,16.87
2022-10-01T06:13:07.786Z,16.87
2022-10-01T06:14:07.885Z,16.87
2022-10-01T06:15:08.003Z,16.87
2022-10-01T06:16:08.155Z,16.87
2022-10-01T06:17:08.217Z,16.87
2022-10-01T06:18:08.331Z,22.50
2022-10-01T06:19:08.438Z,16.87
2022-10-01T06:20:08.549Z,22.50
2022-10-01T06:21:08.659Z,22.50
2022-10-01T06:22:08.775Z,22.50
2022-10-01T06:23:08.888Z,28.12
2022-10-01T06:24:09.011Z,33.75
2022-10-01T06:25:09.115Z,28.12
2022-10-01T06:26:09.254Z,28.12
2022-10-01T06:27:09.338Z,28.12
2022-10-01T06:28:09.532Z,22.50
2022-10-01T06:29:09.561Z,22.50
2022-10-01T06:30:09.672Z,22.50
2022-10-01T06:31:09.785Z,22.50
2022-10-01T06:32:10.027Z,22.50
2022-10-01T06:33:10.014Z,28.12
2022-10-01T06:34:10.120Z,28.12
2022-10-01T06:35:10.234Z,33.75
2022-10-01T06:36:10.344Z,33.75
2022-10-01T06:37:10.455Z,33.75
2022-10-01T06:38:10.563Z,33.75
2022-10-01T06:39:10.678Z,33.75
2022-10-01T06:40:10.787Z,33.75
2022-10-01T06:41:10.896Z,28.12
2022-10-01T06:42:11.024Z,28.12
2022-10-01T06:43:11.105Z,22.50
2022-10-01T06:44:11.212Z,22.50
2022-10-01T06:45:11.325Z,22.50
2022-10-01T06:46:11.519Z,22.50
2022-10-01T06:47:11.540Z,16.87
2022-10-01T06:48:11.643Z,16.87
2022-10-01T06:49:11.752Z,16.87
2022-10-01T06:50:11.862Z,22.50
2022-10-01T06:51:11.970Z,22.50
2022-10-01T06:52:12.081Z,16.87
2022-10-01T06:53:12.193Z,16.87
2022-10-01T06:54:12.306Z,16.87
2022-10-01T06:55:16.457Z,16.87
2022-10-01T06:56:12.524Z,16.87
2022-10-01T06:57:12.639Z,16.87
2022-10-01T06:58:12.828Z,16.87
2022-10-01T06:59:12.914Z,22.50
2022-10-01T07:00:13.021Z,16.87
2022-10-01T07:01:13.179Z,16.87
2022-10-01T07:02:13.337Z,11.25
2022-10-01T07:03:13.349Z,16.87
2022-10-01T07:04:13.460Z,16.87
2022-10-01T07:05:13.571Z,22.50
2022-10-01T07:06:13.688Z,22.50
2022-10-01T07:07:13.794Z,28.12
2022-10-01T07:08:13.908Z,22.50
2022-10-01T07:09:14.016Z,16.87
2022-10-01T07:10:14.124Z,22.50
2022-10-01T07:11:14.234Z,28.12
2022-10-01T07:12:14.344Z,33.75
2022-10-01T07:13:14.465Z,33.75
2022-10-01T07:14:14.595Z,33.75
2022-10-01T07:15:14.678Z,45.00
2022-10-01T07:16:14.814Z,50.62
2022-10-01T07:17:14.894Z,50.62
2022-10-01T07:18:14.999Z,45.00
2022-10-01T07:19:15.110Z,33.75
2022-10-01T07:20:15.221Z,45.00
2022-10-01T07:21:15.329Z,39.37
2022-10-01T07:22:15.434Z,33.75
2022-10-01T07:23:15.543Z,33.75
2022-10-01T07:24:15.649Z,50.62
2022-10-01T07:25:15.750Z,78.75
2022-10-01T07:26:15.854Z,118.12
2022-10-01T07:27:15.964Z,73.12
2022-10-01T07:28:16.471Z,50.62
2022-10-01T07:29:16.178Z,39.37
2022-10-01T07:30:16.310Z,33.75
2022-10-01T07:31:16.508Z,28.12
2022-10-01T07:32:16.501Z,33.75
2022-10-01T07:33:16.608Z,45.00
2022-10-01T07:34:16.715Z,50.62
2022-10-01T07:35:16.823Z,61.87
2022-10-01T07:36:16.926Z,56.25
2022-10-01T07:37:17.028Z,78.75
2022-10-01T07:38:17.136Z,118.12
2022-10-01T07:39:17.243Z,118.12
2022-10-01T07:40:17.353Z,106.87
2022-10-01T07:41:17.464Z,129.37
2022-10-01T07:42:17.569Z,90.00
2022-10-01T07:43:17.680Z,73.12
2022-10-01T07:44:17.785Z,67.50
2022-10-01T07:45:17.894Z,78.75
2022-10-01T07:46:18.117Z,73.12
2022-10-01T07:47:18.106Z,50.62
2022-10-01T07:48:18.205Z,39.37
2022-10-01T07:49:18.315Z,33.75
2022-10-01T07:50:18.425Z,39.37
2022-10-01T07:51:18.532Z,45.00
2022-10-01T07:52:18.641Z,50.62
2022-10-01T07:53:18.752Z,67.50
2022-10-01T07:54:18.861Z,73.12
2022-10-01T07:55:18.967Z,84.37
2022-10-01T07:56:19.076Z,106.87
2022-10-01T07:57:21.143Z,106.87
2022-10-01T07:58:19.291Z,106.87
2022-10-01T07:59:19.391Z,118.12
2022-10-01T08:00:19.493Z,157.50
2022-10-01T08:01:19.663Z,196.87
2022-10-01T08:02:19.763Z,185.62
2022-10-01T08:03:19.788Z,275.62
2022-10-01T08:04:19.891Z,264.37
2022-10-01T08:05:19.988Z,303.75
2022-10-01T08:06:25.230Z,281.25
2022-10-01T08:07:20.177Z,292.50
2022-10-01T08:08:20.270Z,202.50
2022-10-01T08:09:20.371Z,219.37
2022-10-01T08:10:20.455Z,236.25
2022-10-01T08:11:20.547Z,241.87
2022-10-01T08:12:20.636Z,236.25
2022-10-01T08:13:20.724Z,275.62
2022-10-01T08:14:20.817Z,275.62
2022-10-01T08:15:20.907Z,225.00
2022-10-01T08:16:21.033Z,236.25
2022-10-01T08:17:21.110Z,270.00
2022-10-01T08:18:21.168Z,292.50
2022-10-01T08:19:21.256Z,354.37
2022-10-01T08:20:21.337Z,326.25
2022-10-01T08:21:21.420Z,444.37
2022-10-01T08:22:21.508Z,253.12
2022-10-01T08:23:21.591Z,315.00
2022-10-01T08:24:21.676Z,360.00
2022-10-01T08:25:21.760Z,331.87
2022-10-01T08:26:21.843Z,393.75
2022-10-01T08:27:21.924Z,489.37
2022-10-01T08:28:22.121Z,630.00
2022-10-01T08:29:22.076Z,506.25
2022-10-01T08:30:22.211Z,517.50
2022-10-01T08:31:22.301Z,500.62
2022-10-01T08:32:22.287Z,1029.37
2022-10-01T08:33:22.379Z,675.00
2022-10-01T08:34:22.422Z,635.62
2022-10-01T08:35:22.493Z,534.37
2022-10-01T08:36:22.538Z,433.12
2022-10-01T08:37:22.601Z,303.75
2022-10-01T08:38:22.662Z,258.75
2022-10-01T08:39:22.722Z,213.75
2022-10-01T08:40:22.789Z,213.75
2022-10-01T08:41:23.438Z,241.87
2022-10-01T08:42:22.924Z,371.25
2022-10-01T08:43:22.986Z,1580.62
2022-10-01T08:44:23.073Z,663.75
2022-10-01T08:45:23.112Z,540.00
2022-10-01T08:46:23.172Z,382.50
2022-10-01T08:47:23.239Z,348.75
2022-10-01T08:48:23.299Z,472.50
2022-10-01T08:49:23.381Z,646.87
2022-10-01T08:50:23.423Z,382.50
2022-10-01T08:51:23.485Z,337.50
2022-10-01T08:52:23.549Z,376.87
2022-10-01T08:53:23.613Z,376.87
2022-10-01T08:54:23.683Z,365.62
2022-10-01T08:55:23.755Z,343.12
2022-10-01T08:56:23.823Z,393.75
2022-10-01T08:57:23.890Z,461.25
2022-10-01T08:58:23.959Z,315.00
2022-10-01T08:59:27.322Z,371.25
2022-10-01T09:00:24.114Z,450.00
2022-10-01T09:01:24.211Z,343.12
2022-10-01T09:02:24.245Z,393.75
2022-10-01T09:03:24.319Z,326.25
2022-10-01T09:04:24.450Z,376.87
2022-10-01T09:05:24.489Z,455.62
2022-10-01T09:06:24.529Z,573.75
2022-10-01T09:07:24.592Z,500.62
2022-10-01T09:08:24.667Z,596.25
2022-10-01T09:09:24.728Z,680.62
2022-10-01T09:10:24.792Z,731.25
2022-10-01T09:11:24.846Z,759.37
2022-10-01T09:12:24.912Z,793.12
2022-10-01T09:13:24.970Z,759.37
2022-10-01T09:14:25.040Z,753.75
2022-10-01T09:15:25.093Z,753.75
2022-10-01T09:16:25.220Z,601.87
2022-10-01T09:17:25.195Z,613.12
2022-10-01T09:18:25.244Z,658.12
2022-10-01T09:19:25.297Z,478.12
2022-10-01T09:20:25.344Z,523.12
2022-10-01T09:21:25.420Z,776.25
2022-10-01T09:22:25.444Z,1029.37
2022-10-01T09:23:25.501Z,1068.75
2022-10-01T09:24:25.542Z,1681.87
2022-10-01T09:25:25.579Z,1383.75
2022-10-01T09:26:25.945Z,1029.37
2022-10-01T09:27:25.630Z,1631.25
2022-10-01T09:28:25.686Z,1575.00
2022-10-01T09:29:25.665Z,1670.62
2022-10-01T09:30:25.673Z,1068.75
2022-10-01T09:31:25.716Z,1226.25
2022-10-01T09:32:25.688Z,916.87
2022-10-01T09:33:25.692Z,1417.50
2022-10-01T09:34:25.692Z,1063.12
2022-10-01T09:35:25.693Z,1355.62
2022-10-01T09:36:25.690Z,1338.75
2022-10-01T09:37:25.706Z,2205.00
2022-10-01T09:38:25.674Z,950.62
2022-10-01T09:39:25.668Z,2154.37
2022-10-01T09:40:25.656Z,2430.00
2022-10-01T09:41:25.641Z,2430.00
2022-10-01T09:42:25.616Z,2362.50
2022-10-01T09:43:25.588Z,2216.25
2022-10-01T09:44:25.562Z,894.37
2022-10-01T09:45:25.647Z,1816.87
2022-10-01T09:46:25.517Z,1676.25
2022-10-01T09:47:25.495Z,1929.37
2022-10-01T09:48:25.473Z,1068.75
2022-10-01T09:49:25.451Z,1288.12
2022-10-01T09:50:25.429Z,1951.87
2022-10-01T09:51:25.404Z,1136.25
2022-10-01T09:52:25.381Z,1012.50
2022-10-01T09:53:25.381Z,1001.25
2022-10-01T09:54:25.342Z,928.12
2022-10-01T09:55:25.322Z,838.12
2022-10-01T09:56:25.312Z,804.37
2022-10-01T09:57:25.309Z,770.62
2022-10-01T09:58:25.307Z,821.25
2022-10-01T09:59:25.312Z,1276.87
2022-10-01T10:00:25.319Z,1687.50
2022-10-01T10:01:25.317Z,2064.37
2022-10-01T10:02:25.407Z,781.87
2022-10-01T10:03:25.489Z,748.12
2022-10-01T10:04:25.299Z,2255.62
2022-10-01T10:05:25.294Z,2098.12
2022-10-01T10:06:25.281Z,2154.37
2022-10-01T10:07:25.270Z,1507.50
2022-10-01T10:08:25.231Z,2767.50
2022-10-01T10:09:25.220Z,2385.00
2022-10-01T10:10:26.037Z,2075.62
2022-10-01T10:11:25.130Z,1788.75
2022-10-01T10:12:25.084Z,1462.50
2022-10-01T10:13:25.037Z,2188.12
2022-10-01T10:14:24.991Z,2373.75
2022-10-01T10:15:24.943Z,2716.87
2022-10-01T10:16:24.948Z,2688.75
2022-10-01T10:17:24.822Z,2126.25
2022-10-01T10:18:24.757Z,1293.75
2022-10-01T10:19:24.687Z,888.75
2022-10-01T10:20:24.656Z,843.75
2022-10-01T10:21:24.577Z,551.25
2022-10-01T10:22:24.528Z,579.37
2022-10-01T10:23:24.499Z,624.37
2022-10-01T10:24:24.457Z,736.87
2022-10-01T10:25:24.457Z,495.00
2022-10-01T10:26:24.412Z,438.75
2022-10-01T10:27:24.395Z,517.50
2022-10-01T10:28:24.501Z,585.00
2022-10-01T10:29:24.380Z,821.25
2022-10-01T10:30:24.380Z,2587.50
2022-10-01T10:31:24.620Z,2407.50
2022-10-01T10:32:24.367Z,1006.87
2022-10-01T10:33:24.347Z,1586.25
2022-10-01T10:34:24.330Z,1355.62
2022-10-01T10:35:24.310Z,2086.87
2022-10-01T10:36:24.282Z,2075.62
2022-10-01T10:37:24.251Z,1158.75
2022-10-01T10:38:26.207Z,2958.75
2022-10-01T10:39:24.161Z,1715.62
2022-10-01T10:40:28.590Z,2604.37
2022-10-01T10:41:24.069Z,1811.25
2022-10-01T10:42:23.980Z,1974.37
2022-10-01T10:43:23.917Z,1642.50
2022-10-01T10:44:23.860Z,1485.00
2022-10-01T10:45:23.801Z,1051.87
2022-10-01T10:46:23.781Z,866.25
2022-10-01T10:47:23.707Z,883.12
2022-10-01T10:48:23.668Z,843.75
2022-10-01T10:49:23.638Z,1231.87
2022-10-01T10:50:23.606Z,894.37
2022-10-01T10:51:23.575Z,748.12
2022-10-01T10:52:23.568Z,607.50
2022-10-01T10:53:23.531Z,523.12
2022-10-01T10:54:23.518Z,495.00
2022-10-01T10:55:23.513Z,478.12
2022-10-01T10:56:23.522Z,466.87
2022-10-01T10:57:23.537Z,444.37
2022-10-01T10:58:23.519Z,438.75
2022-10-01T10:59:23.530Z,421.87
2022-10-01T11:00:23.546Z,399.37
2022-10-01T11:01:23.661Z,388.12
2022-10-01T11:02:23.672Z,365.62
2022-10-01T11:03:23.604Z,354.37
2022-10-01T11:04:23.625Z,343.12
2022-10-01T11:05:23.657Z,337.50
2022-10-01T11:06:23.683Z,337.50
2022-10-01T11:07:23.713Z,348.75
2022-10-01T11:08:23.746Z,371.25
2022-10-01T11:09:23.784Z,405.00
2022-10-01T11:10:25.822Z,427.50
2022-10-01T11:11:23.860Z,466.87
2022-10-01T11:12:23.900Z,483.75
2022-10-01T11:13:23.967Z,495.00
2022-10-01T11:14:24.127Z,506.25
2022-10-01T11:15:24.027Z,540.00
2022-10-01T11:16:24.153Z,568.12
2022-10-01T11:17:24.102Z,568.12
2022-10-01T11:18:24.141Z,551.25
2022-10-01T11:19:24.181Z,573.75
2022-10-01T11:20:24.225Z,590.62
2022-10-01T11:21:24.272Z,618.75
2022-10-01T11:22:24.315Z,635.62
2022-10-01T11:23:24.360Z,601.87
2022-10-01T11:24:24.403Z,568.12
2022-10-01T11:25:24.453Z,517.50
2022-10-01T11:26:24.497Z,438.75
2022-10-01T11:27:24.547Z,388.12
2022-10-01T11:28:24.636Z,354.37
2022-10-01T11:29:24.665Z,320.62
2022-10-01T11:30:24.694Z,281.25
2022-10-01T11:31:24.816Z,241.87
2022-10-01T11:32:24.798Z,196.87
2022-10-01T11:33:24.856Z,163.12
2022-10-01T11:34:24.912Z,140.62
2022-10-01T11:35:24.977Z,129.37
2022-10-01T11:36:25.037Z,129.37
2022-10-01T11:37:25.102Z,140.62
2022-10-01T11:38:25.168Z,151.87
2022-10-01T11:39:25.235Z,180.00
2022-10-01T11:40:25.297Z,225.00
2022-10-01T11:41:25.361Z,281.25
2022-10-01T11:42:25.430Z,376.87
2022-10-01T11:43:25.503Z,511.87
2022-10-01T11:44:25.565Z,680.62
2022-10-01T11:45:25.656Z,821.25
2022-10-01T11:46:25.713Z,916.87
2022-10-01T11:47:25.739Z,1074.37
2022-10-01T11:48:25.811Z,877.50
2022-10-01T11:49:25.836Z,866.25
2022-10-01T11:50:25.883Z,978.75
2022-10-01T11:51:25.929Z,990.00
2022-10-01T11:52:25.972Z,1051.87
2022-10-01T11:53:26.013Z,3138.75
2022-10-01T11:54:26.033Z,3290.62
2022-10-01T11:55:26.045Z,1181.25
2022-10-01T11:56:26.045Z,3532.50
2022-10-01T11:57:26.035Z,821.25
2022-10-01T11:58:26.020Z,2475.00
2022-10-01T11:59:25.997Z,1648.12
2022-10-01T12:00:27.447Z,1777.50
2022-10-01T12:01:25.974Z,787.50
2022-10-01T12:02:25.969Z,2154.37
2022-10-01T12:03:25.899Z,2115.00
2022-10-01T12:04:25.862Z,1023.75
2022-10-01T12:05:25.962Z,2216.25
2022-10-01T12:06:28.416Z,2750.62
2022-10-01T12:07:25.721Z,2553.75
2022-10-01T12:08:25.660Z,2205.00
2022-10-01T12:09:25.595Z,2058.75
2022-10-01T12:10:25.523Z,2058.75
2022-10-01T12:11:25.451Z,2098.12
2022-10-01T12:12:25.376Z,2345.62
2022-10-01T12:13:25.298Z,3290.62
2022-10-01T12:14:25.209Z,3723.75
2022-10-01T12:15:25.119Z,2941.87
2022-10-01T12:16:25.103Z,2610.00
2022-10-01T12:17:24.965Z,3054.37
2022-10-01T12:18:24.853Z,3436.87
2022-10-01T12:19:24.757Z,3307.50
2022-10-01T12:20:24.669Z,2716.87
2022-10-01T12:21:24.561Z,2272.50
2022-10-01T12:22:24.851Z,2199.37
2022-10-01T12:23:24.361Z,2261.25
2022-10-01T12:24:24.258Z,2300.62
2022-10-01T12:25:24.146Z,2255.62
2022-10-01T12:26:24.044Z,2581.87
2022-10-01T12:27:23.936Z,3121.87
2022-10-01T12:28:23.948Z,3273.75
2022-10-01T12:29:23.720Z,2520.00
2022-10-01T12:30:23.612Z,2317.50
2022-10-01T12:31:23.579Z,2176.87
2022-10-01T12:32:23.373Z,2131.87
2022-10-01T12:33:23.283Z,1023.75
2022-10-01T12:34:23.150Z,866.25
2022-10-01T12:35:23.064Z,798.75
2022-10-01T12:36:22.984Z,714.37
2022-10-01T12:37:22.917Z,714.37
2022-10-01T12:38:22.855Z,731.25
2022-10-01T12:39:22.804Z,725.62
2022-10-01T12:40:22.765Z,995.62
2022-10-01T12:41:22.727Z,2514.37
2022-10-01T12:42:22.667Z,2542.50
2022-10-01T12:43:22.600Z,1181.25
2022-10-01T12:44:22.536Z,961.87
2022-10-01T12:45:22.482Z,686.25
2022-10-01T12:46:22.634Z,562.50
2022-10-01T12:47:22.388Z,562.50
2022-10-01T12:48:22.351Z,601.87
2022-10-01T12:49:22.423Z,630.00
2022-10-01T12:50:22.303Z,590.62
2022-10-01T12:51:22.286Z,438.75